DEKAM EDBA-EDBS
Flight info
| Callsign | DEKAM |
|---|---|
| Flight time | 0h 14m |
| Altitude | |
| Route | |
| Aircraft | PA24 |
Departure
| Time | 2026-04-28 16:21 |
|---|---|
| Airport | Arnstadt-Alkersleben Airfield (EDBA) |
Arrival
| Time | 2026-04-28 16:36 |
|---|---|
| Airport | Sömmerda-Dermsdorf Airfield (EDBS) |
| Time | Latitude | Longitude | Altitude | Speed | Heading |
|---|---|---|---|---|---|
| 2026-04-28 16:21 | 50.87167 | 11.04629 | 2725 ft | 99 kts | 69° |
| 2026-04-28 16:21 | 50.87350 | 11.05652 | 2828 ft | 101 kts | 72° |
| 2026-04-28 16:22 | 50.87555 | 11.06745 | 2907 ft | 104 kts | 66° |
| 2026-04-28 16:22 | 50.87810 | 11.07790 | 2952 ft | 101 kts | 66° |
| 2026-04-28 16:22 | 50.88033 | 11.08853 | 2923 ft | 104 kts | 71° |
| 2026-04-28 16:22 | 50.88223 | 11.09996 | 2915 ft | 111 kts | 69° |
| 2026-04-28 16:23 | 50.88467 | 11.11140 | 2915 ft | 108 kts | 68° |
| 2026-04-28 16:23 | 50.88713 | 11.12266 | 2913 ft | 108 kts | 68° |
| 2026-04-28 16:23 | 50.88961 | 11.13367 | 2913 ft | 106 kts | 69° |
| 2026-04-28 16:23 | 50.89190 | 11.14462 | 2914 ft | 106 kts | 67° |
| 2026-04-28 16:24 | 50.89422 | 11.15563 | 2915 ft | 106 kts | 68° |
| 2026-04-28 16:24 | 50.89666 | 11.16666 | 2917 ft | 108 kts | 68° |
| 2026-04-28 16:24 | 50.89917 | 11.17772 | 2928 ft | 107 kts | 67° |
| 2026-04-28 16:24 | 50.90322 | 11.18760 | 2924 ft | 109 kts | 41° |
| 2026-04-28 16:25 | 50.90912 | 11.19489 | 2928 ft | 108 kts | 38° |
| 2026-04-28 16:25 | 50.91521 | 11.20196 | 2929 ft | 107 kts | 39° |
| 2026-04-28 16:25 | 50.92128 | 11.20901 | 2925 ft | 110 kts | 38° |
| 2026-04-28 16:25 | 50.92752 | 11.21609 | 2922 ft | 110 kts | 38° |
| 2026-04-28 16:26 | 50.93381 | 11.22290 | 2914 ft | 110 kts | 37° |
| 2026-04-28 16:26 | 50.94006 | 11.22958 | 2916 ft | 107 kts | 39° |
| 2026-04-28 16:26 | 50.94630 | 11.23608 | 2918 ft | 107 kts | 38° |
| 2026-04-28 16:26 | 50.95236 | 11.24274 | 2918 ft | 105 kts | 35° |
| 2026-04-28 16:27 | 50.95873 | 11.24875 | 2919 ft | 108 kts | 33° |
| 2026-04-28 16:27 | 50.96570 | 11.25229 | 2929 ft | 108 kts | 3° |
| 2026-04-28 16:27 | 50.98120 | 11.24783 | 2921 ft | 115 kts | 356° |
| 2026-04-28 16:28 | 50.98904 | 11.24489 | 2923 ft | 116 kts | 355° |
| 2026-04-28 16:28 | 50.99695 | 11.24174 | 2925 ft | 119 kts | 356° |
| 2026-04-28 16:28 | 51.00499 | 11.23860 | 2928 ft | 120 kts | 355° |
| 2026-04-28 16:28 | 51.01300 | 11.23560 | 2922 ft | 119 kts | 354° |
| 2026-04-28 16:29 | 51.02851 | 11.22949 | 2921 ft | 114 kts | 355° |
| 2026-04-28 16:29 | 51.04426 | 11.22336 | 2926 ft | 116 kts | 355° |
| 2026-04-28 16:30 | 51.05218 | 11.22044 | 2924 ft | 117 kts | 355° |
| 2026-04-28 16:30 | 51.06018 | 11.21756 | 2926 ft | 118 kts | 355° |
| 2026-04-28 16:30 | 51.06839 | 11.21447 | 2952 ft | 127 kts | 355° |
| 2026-04-28 16:30 | 51.07737 | 11.21128 | 2946 ft | 137 kts | 355° |
| 2026-04-28 16:31 | 51.08679 | 11.20803 | 2934 ft | 140 kts | 355° |
| 2026-04-28 16:31 | 51.09638 | 11.20472 | 2928 ft | 142 kts | 354° |
| 2026-04-28 16:31 | 51.10601 | 11.20116 | 2926 ft | 142 kts | 354° |
| 2026-04-28 16:31 | 51.11569 | 11.19756 | 2925 ft | 144 kts | 355° |
| 2026-04-28 16:32 | 51.12543 | 11.19399 | 2927 ft | 143 kts | 354° |
| 2026-04-28 16:32 | 51.14507 | 11.18951 | 2929 ft | 142 kts | 2° |
| 2026-04-28 16:32 | 51.15494 | 11.18910 | 2928 ft | 141 kts | 6° |
| 2026-04-28 16:33 | 51.16471 | 11.18882 | 2927 ft | 140 kts | 5° |
| 2026-04-28 16:33 | 51.17116 | 11.18862 | 2928 ft | 140 kts | 5° |
| 2026-04-28 16:33 | 51.18401 | 11.18802 | 2927 ft | 136 kts | 5° |
| 2026-04-28 16:33 | 51.19335 | 11.18749 | 2926 ft | 133 kts | 5° |
| 2026-04-28 16:34 | 51.20235 | 11.18709 | 2908 ft | 121 kts | 5° |
| 2026-04-28 16:34 | 51.21004 | 11.18680 | 2673 ft | 101 kts | 8° |
| 2026-04-28 16:34 | 51.21636 | 11.18815 | 2422 ft | 83 kts | 33° |
| 2026-04-28 16:34 | 51.21902 | 11.19455 | 2171 ft | 68 kts | 90° |
| 2026-04-28 16:35 | 51.21589 | 11.20078 | 1832 ft | 84 kts | 137° |
| 2026-04-28 16:35 | 51.21031 | 11.20541 | 1412 ft | 93 kts | 144° |
| 2026-04-28 16:35 | 51.20424 | 11.20800 | 1040 ft | 90 kts | 181° |
| 2026-04-28 16:35 | 51.20046 | 11.20120 | 674 ft | 90 kts | 256° |
| 2026-04-28 16:36 | 51.19844 | 11.19181 | 461 ft | 82 kts | 255° |
| 2026-04-28 16:36 | 51.19715 | 11.18574 | 455 ft | 21 kts | 257° |
| 2026-04-28 16:36 | 51.19705 | 11.18567 | 455 ft | 8 kts | 71° |